createdAt,value
2022-08-08T00:03:38.775Z,17.6
2022-08-08T00:08:24.422Z,17.6
2022-08-08T00:13:03.285Z,17.4
2022-08-08T00:17:44.593Z,17.3
2022-08-08T00:22:26.902Z,17.4
2022-08-08T00:27:09.213Z,17.3
2022-08-08T00:31:51.419Z,17.1
2022-08-08T00:36:33.720Z,17
2022-08-08T00:41:16.030Z,16.6
2022-08-08T00:45:58.334Z,16.8
2022-08-08T00:50:40.540Z,16.9
2022-08-08T00:55:22.850Z,16.9
2022-08-08T01:00:05.160Z,16.9
2022-08-08T01:04:47.423Z,16.7
2022-08-08T01:09:29.727Z,16.9
2022-08-08T01:14:11.932Z,16.7
2022-08-08T01:18:53.235Z,16.7
2022-08-08T01:23:54.998Z,16.7
2022-08-08T01:28:17.849Z,16.6
2022-08-08T01:33:00.060Z,16.5
2022-08-08T01:37:42.363Z,16.6
2022-08-08T01:42:24.621Z,16.5
2022-08-08T01:47:06.934Z,16.5
2022-08-08T01:51:49.235Z,16.7
2022-08-08T01:56:31.442Z,16.6
2022-08-08T02:01:13.801Z,16.6
2022-08-08T02:05:56.012Z,16.6
2022-08-08T02:10:38.320Z,16.5
2022-08-08T02:15:20.622Z,16.5
2022-08-08T02:20:01.929Z,16.5
2022-08-08T02:24:44.136Z,16.3
2022-08-08T02:29:26.448Z,16.6
2022-08-08T02:34:08.760Z,16.4
2022-08-08T02:38:50.965Z,16.4
2022-08-08T02:43:32.271Z,16.5
2022-08-08T02:48:14.576Z,16.6
2022-08-08T02:52:56.878Z,16.5
2022-08-08T02:57:39.189Z,16.7
2022-08-08T03:02:21.405Z,16.8
2022-08-08T03:07:03.703Z,16.6
2022-08-08T03:11:46.007Z,16.5
2022-08-08T03:16:28.220Z,16.4
2022-08-08T03:21:10.524Z,16.3
2022-08-08T03:25:52.832Z,16
2022-08-08T03:30:35.141Z,15.8
2022-08-08T03:35:17.349Z,15.7
2022-08-08T03:39:59.655Z,15.8
2022-08-08T03:49:24.172Z,15.6
2022-08-08T03:54:05.478Z,15.6
2022-08-08T03:58:47.789Z,15.7
2022-08-08T04:03:30.090Z,15.6
2022-08-08T04:08:12.404Z,15.3
2022-08-08T04:12:54.603Z,15.3
2022-08-08T04:17:36.917Z,15.3
2022-08-08T04:22:19.221Z,15.3
2022-08-08T04:27:01.429Z,15.2
2022-08-08T04:31:45.727Z,15.3
2022-08-08T04:36:26.042Z,15.4
2022-08-08T04:41:08.360Z,15.4
2022-08-08T04:45:50.558Z,15.6
2022-08-08T04:50:32.865Z,15.7
2022-08-08T04:55:14.172Z,15.9
2022-08-08T04:59:56.488Z,15.9
2022-08-08T05:04:38.703Z,15.8
2022-08-08T05:09:21.003Z,16
2022-08-08T05:14:03.321Z,16
2022-08-08T05:18:45.505Z,16.2
2022-08-08T05:23:27.830Z,16.4
2022-08-08T05:28:10.122Z,16.7
2022-08-08T05:32:52.431Z,16.8
2022-08-08T05:37:34.634Z,16.9
2022-08-08T05:42:16.949Z,17.1
2022-08-08T05:46:59.276Z,17.4
2022-08-08T05:51:41.475Z,17.5
2022-08-08T05:56:22.763Z,17.7
2022-08-08T06:01:05.080Z,18
2022-08-08T06:05:47.389Z,18.2
2022-08-08T06:10:29.587Z,18.4
2022-08-08T06:15:11.892Z,18.6
2022-08-08T06:19:54.202Z,18.8
2022-08-08T06:24:36.514Z,18.8
2022-08-08T06:29:18.723Z,19
2022-08-08T06:34:01.024Z,19.1
2022-08-08T06:38:43.336Z,19.2
2022-08-08T06:43:25.542Z,19.4
2022-08-08T06:48:08.523Z,19.5
2022-08-08T06:52:50.156Z,19.4
2022-08-08T06:57:32.415Z,19.7
2022-08-08T07:02:13.726Z,19.7
2022-08-08T07:06:56.030Z,19.9
2022-08-08T07:11:38.240Z,20.2
2022-08-08T07:16:20.544Z,20.7
2022-08-08T07:21:02.864Z,21.2
2022-08-08T07:25:45.063Z,21.6
2022-08-08T07:30:27.366Z,21.6
2022-08-08T07:35:09.676Z,21.9
2022-08-08T07:39:51.979Z,22.1
2022-08-08T07:44:34.197Z,22.2
2022-08-08T07:49:16.512Z,22.5
2022-08-08T07:53:58.807Z,22.3
2022-08-08T07:58:41.012Z,22.6
2022-08-08T08:03:22.318Z,22.9
2022-08-08T08:08:04.629Z,22.7
2022-08-08T08:12:46.938Z,22.9
2022-08-08T08:17:29.142Z,23.2
2022-08-08T08:22:11.448Z,23.4
2022-08-08T08:26:54.581Z,23.7
2022-08-08T08:31:36.063Z,23.9
2022-08-08T08:36:18.277Z,23.8
2022-08-08T08:41:00.579Z,24.1
2022-08-08T08:45:42.887Z,24.3
2022-08-08T08:50:25.138Z,24
2022-08-08T08:55:07.453Z,24.3
2022-08-08T08:59:49.654Z,24.9
2022-08-08T09:04:30.967Z,25.2
2022-08-08T09:09:13.270Z,25.3
2022-08-08T09:13:55.530Z,25.5
2022-08-08T09:18:37.857Z,25.4
2022-08-08T09:23:20.169Z,25.7
2022-08-08T09:28:02.355Z,26.3
2022-08-08T09:32:44.657Z,26.5
2022-08-08T09:37:26.968Z,26.2
2022-08-08T09:42:09.174Z,25.9
2022-08-08T09:46:51.500Z,26.4
2022-08-08T09:51:33.787Z,26.3
2022-08-08T09:56:16.108Z,27.2
2022-08-08T10:05:40.618Z,30.5
2022-08-08T10:10:21.931Z,29.9
2022-08-08T10:15:04.230Z,29.9
2022-08-08T10:19:46.440Z,31
2022-08-08T10:24:28.748Z,32.5
2022-08-08T10:29:11.061Z,34.2
2022-08-08T10:33:53.364Z,32.4
2022-08-08T10:38:35.573Z,31.7
2022-08-08T10:43:17.876Z,34.5
2022-08-08T10:48:00.196Z,33.8
2022-08-08T10:52:42.490Z,34.8
2022-08-08T10:57:24.701Z,34.4
2022-08-08T11:02:07.017Z,35.4
2022-08-08T11:06:49.323Z,36.6
2022-08-08T11:11:30.627Z,36.4
2022-08-08T11:16:12.939Z,36.8
2022-08-08T11:20:55.150Z,37.6
2022-08-08T11:25:37.584Z,37.9
2022-08-08T11:30:19.765Z,36.9
2022-08-08T11:35:02.074Z,36.6
2022-08-08T11:39:44.398Z,34.5
2022-08-08T11:44:26.579Z,36.8
2022-08-08T11:49:08.889Z,36.7
2022-08-08T11:53:51.197Z,36.1
2022-08-08T11:58:33.523Z,36.4
2022-08-08T12:03:15.815Z,36.8
2022-08-08T12:07:58.051Z,37.6
2022-08-08T12:12:39.329Z,37.3
2022-08-08T12:17:21.636Z,35.4
2022-08-08T12:22:03.946Z,33.4
2022-08-08T12:26:46.256Z,33.8
2022-08-08T12:31:28.466Z,36.2
2022-08-08T12:36:10.768Z,37.6
2022-08-08T12:40:53.087Z,33.6
2022-08-08T12:45:35.390Z,34.6
2022-08-08T12:50:17.694Z,36
2022-08-08T12:54:59.903Z,37
2022-08-08T12:59:44.382Z,40.3
2022-08-08T13:04:24.523Z,40.3
2022-08-08T13:09:06.835Z,39.2
2022-08-08T13:13:48.138Z,38.5
2022-08-08T13:18:30.447Z,38.7
2022-08-08T13:23:12.654Z,39.1
2022-08-08T13:27:54.964Z,38.1
2022-08-08T13:32:37.275Z,36.5
2022-08-08T13:37:19.583Z,37.1
2022-08-08T13:42:01.893Z,36.8
2022-08-08T13:46:44.099Z,37.9
2022-08-08T13:51:26.406Z,38.7
2022-08-08T13:56:08.711Z,39.7
2022-08-08T14:00:51.027Z,38.7
2022-08-08T14:05:33.253Z,39.4
2022-08-08T14:10:15.542Z,39.6
2022-08-08T14:14:56.869Z,40.3
2022-08-08T14:19:39.157Z,40.7
2022-08-08T14:24:21.462Z,38.6
2022-08-08T14:29:03.778Z,39.6
2022-08-08T14:33:45.982Z,39
2022-08-08T14:38:28.294Z,39.1
2022-08-08T14:43:10.655Z,38.5
2022-08-08T14:47:52.922Z,38.5
2022-08-08T14:52:35.113Z,39.9
2022-08-08T15:01:59.742Z,34.6
2022-08-08T15:06:42.050Z,32.8
2022-08-08T15:11:24.362Z,32.1
2022-08-08T15:16:05.551Z,34.9
2022-08-08T15:20:47.860Z,36
2022-08-08T15:25:30.176Z,35.3
2022-08-08T15:30:12.485Z,37.2
2022-08-08T15:34:54.695Z,38.5
2022-08-08T15:39:36.997Z,39.1
2022-08-08T15:44:19.329Z,39.7
2022-08-08T15:49:01.611Z,39.4
2022-08-08T15:53:43.819Z,37.6
2022-08-08T15:58:26.126Z,35.5
2022-08-08T16:03:08.439Z,34.7
2022-08-08T16:07:50.755Z,35.4
2022-08-08T16:13:00.186Z,37.5
2022-08-08T16:17:14.257Z,37.9
2022-08-08T16:21:56.569Z,37.3
2022-08-08T16:26:38.882Z,37.6
2022-08-08T16:31:21.185Z,37.1
2022-08-08T16:36:03.413Z,37.8
2022-08-08T16:40:45.704Z,35.4
2022-08-08T16:45:28.008Z,35.6
2022-08-08T16:50:10.327Z,36.6
2022-08-08T16:54:56.845Z,36.3
2022-08-08T16:59:34.834Z,36.4
2022-08-08T17:04:17.154Z,36.1
2022-08-08T17:08:59.364Z,36.5
2022-08-08T17:13:41.670Z,34.5
2022-08-08T17:18:22.966Z,34.7
2022-08-08T17:23:05.279Z,32.9
2022-08-08T17:27:47.611Z,34.8
2022-08-08T17:32:29.808Z,34.8
2022-08-08T17:37:12.099Z,34.5
2022-08-08T17:41:54.406Z,33.9
2022-08-08T17:46:36.645Z,34
2022-08-08T17:51:18.926Z,34.2
2022-08-08T17:56:01.216Z,33.4
2022-08-08T18:00:43.485Z,31.8
2022-08-08T18:05:25.797Z,30.4
2022-08-08T18:10:08.115Z,29.4
2022-08-08T18:14:50.330Z,28.8
2022-08-08T18:19:31.623Z,28.4
2022-08-08T18:24:13.926Z,28.1
2022-08-08T18:28:55.256Z,27.5
2022-08-08T18:33:37.539Z,27.3
2022-08-08T18:38:19.756Z,27.1
2022-08-08T18:43:02.056Z,26.8
2022-08-08T18:47:44.373Z,26.5
2022-08-08T18:52:26.597Z,26.2
2022-08-08T18:57:08.907Z,25.8
2022-08-08T19:01:51.192Z,25.6
2022-08-08T19:06:33.499Z,25.1
2022-08-08T19:11:15.708Z,24.9
2022-08-08T19:15:58.036Z,24.6
2022-08-08T19:20:40.335Z,24.5
2022-08-08T19:25:22.534Z,24.2
2022-08-08T19:30:03.839Z,24.1
2022-08-08T19:34:46.173Z,24
2022-08-08T19:39:28.454Z,23.9
2022-08-08T19:44:10.673Z,23.8
2022-08-08T19:48:52.987Z,23.8
2022-08-08T19:53:35.284Z,23.6
2022-08-08T19:58:17.488Z,23.6
2022-08-08T20:02:59.827Z,23.4
2022-08-08T20:07:58.460Z,23.4
2022-08-08T20:12:24.421Z,23.2
2022-08-08T20:17:06.626Z,23.1
2022-08-08T20:21:48.932Z,23
2022-08-08T20:26:31.192Z,22.8
2022-08-08T20:31:12.498Z,22.8
2022-08-08T20:35:54.807Z,22.6
2022-08-08T20:40:37.013Z,22.5
2022-08-08T20:45:19.332Z,22.4
2022-08-08T20:50:01.643Z,22.5
2022-08-08T20:54:43.941Z,22.4
2022-08-08T20:59:26.148Z,22.3
2022-08-08T21:04:08.452Z,22.2
2022-08-08T21:08:50.766Z,21.8
2022-08-08T21:13:32.999Z,21.5
2022-08-08T21:18:15.288Z,21.4
2022-08-08T21:22:57.593Z,21.2
2022-08-08T21:27:39.801Z,21.1
2022-08-08T21:32:21.104Z,21.1
2022-08-08T21:37:03.411Z,21.1
2022-08-08T21:41:46.378Z,21.1
2022-08-08T21:46:27.932Z,21.1
2022-08-08T21:51:10.253Z,20.8
2022-08-08T21:55:52.549Z,20.9
2022-08-08T22:00:34.857Z,20.9
2022-08-08T22:05:17.061Z,20.9
2022-08-08T22:09:59.371Z,21
2022-08-08T22:14:41.687Z,20.8
2022-08-08T22:19:23.890Z,20.9
2022-08-08T22:24:06.193Z,20.9
2022-08-08T22:29:01.684Z,20.9
2022-08-08T22:33:29.761Z,20.7
2022-08-08T22:38:12.068Z,20.6
2022-08-08T22:42:54.379Z,20.7
2022-08-08T22:47:36.590Z,20.6
2022-08-08T22:52:18.895Z,20.6
2022-08-08T22:57:01.161Z,20.5
2022-08-08T23:01:43.464Z,20.4
2022-08-08T23:06:25.769Z,20.3
2022-08-08T23:11:07.975Z,20.3
2022-08-08T23:15:50.282Z,20.1
2022-08-08T23:20:32.628Z,20
2022-08-08T23:25:14.799Z,20
2022-08-08T23:29:57.162Z,19.9
2022-08-08T23:34:38.464Z,19.8
2022-08-08T23:39:20.682Z,20
2022-08-08T23:44:02.939Z,19.8
2022-08-08T23:48:57.170Z,19.7
2022-08-08T23:53:30.792Z,19.6
2022-08-08T23:58:09.804Z,19.4
